Time;durP1;ratioP1;P1;durP2;ratioP2;P2;SDS_P1;SDS_P2;PMS_P1;PMS_P2;Temp;Humidity;BMP_temperature;BMP_pressure;BME280_temperature;BME280_humidity;BME280_pressure;Samples;Min_cycle;Max_cycle;Signal;HPM_P1;HPM_P2
2023/06/19 00:00:32;;;;;;;;;;;22.60;51.10;;;;;;6270962;28;19919;-71
2023/06/19 00:03:33;;;;;;;;;;;22.60;51.00;;;;;;6270624;28;20018;-71
2023/06/19 00:06:33;;;;;;;;;;;22.60;51.00;;;;;;6271027;28;19913;-71
2023/06/19 00:09:34;;;;;;;;;;;22.60;51.00;;;;;;6270281;28;19985;-72
2023/06/19 00:12:34;;;;;;;;;;;22.60;51.00;;;;;;6270595;28;20249;-71
2023/06/19 00:15:35;;;;;;;;;;;22.70;51.10;;;;;;6270090;28;19947;-71
2023/06/19 00:18:39;;;;;;;;;;;22.60;50.90;;;;;;6270784;28;19916;-71
2023/06/19 00:21:42;;;;;;;;;;;22.60;50.90;;;;;;6270386;28;19909;-71
2023/06/19 00:24:43;;;;;;;;;;;22.60;50.80;;;;;;6270130;28;19909;-71
2023/06/19 00:27:43;;;;;;;;;;;22.60;50.90;;;;;;6270116;28;19916;-71
2023/06/19 00:30:44;;;;;;;;;;;22.60;50.80;;;;;;6269968;28;19960;-71
2023/06/19 00:33:48;;;;;;;;;;;22.60;50.80;;;;;;6270229;28;19912;-71
2023/06/19 00:36:48;;;;;;;;;;;22.60;50.90;;;;;;6269619;28;19908;-71
2023/06/19 00:39:49;;;;;;;;;;;22.60;50.90;;;;;;6270059;28;20284;-71
2023/06/19 00:42:49;;;;;;;;;;;22.60;50.90;;;;;;6269873;28;19909;-71
2023/06/19 00:45:50;;;;;;;;;;;22.60;50.90;;;;;;6269684;28;19916;-71
2023/06/19 00:48:50;;;;;;;;;;;22.60;51.50;;;;;;6269470;28;19924;-71
2023/06/19 00:51:52;;;;;;;;;;;22.60;50.80;;;;;;6269776;28;20269;-71
2023/06/19 00:54:53;;;;;;;;;;;22.60;50.70;;;;;;6269016;28;19919;-71
2023/06/19 00:57:54;;;;;;;;;;;22.60;50.70;;;;;;6269832;28;19960;-71
2023/06/19 01:00:57;;;;;;;;;;;22.70;50.90;;;;;;6269389;28;20041;-71
2023/06/19 01:03:57;;;;;;;;;;;22.60;50.70;;;;;;6269542;28;20395;-71
2023/06/19 01:07:02;;;;;;;;;;;22.60;50.70;;;;;;6269270;28;19909;-71
2023/06/19 01:10:05;;;;;;;;;;;22.60;50.70;;;;;;6269271;28;19915;-71
2023/06/19 01:13:07;;;;;;;;;;;22.60;50.70;;;;;;6267540;28;19909;-71
2023/06/19 01:16:08;;;;;;;;;;;22.60;50.60;;;;;;6269079;28;19909;-71
2023/06/19 01:19:10;;;;;;;;;;;22.60;50.60;;;;;;6268769;28;20028;-71
2023/06/19 01:22:10;;;;;;;;;;;22.60;50.70;;;;;;6268865;28;20374;-71
2023/06/19 01:25:13;;;;;;;;;;;22.70;50.60;;;;;;6268295;28;19917;-71
2023/06/19 01:28:14;;;;;;;;;;;22.60;50.60;;;;;;6268922;28;20010;-71
2023/06/19 01:31:25;;;;;;;;;;;22.60;50.60;;;;;;6268736;28;19909;-71
2023/06/19 01:34:25;;;;;;;;;;;22.60;50.50;;;;;;6268940;28;19916;-71
2023/06/19 01:37:29;;;;;;;;;;;22.60;50.60;;;;;;6268787;28;20291;-71
2023/06/19 01:40:31;;;;;;;;;;;22.60;51.20;;;;;;6268702;28;19923;-71
2023/06/19 01:43:32;;;;;;;;;;;22.60;50.50;;;;;;6269005;28;19913;-71
2023/06/19 01:46:32;;;;;;;;;;;22.70;50.60;;;;;;6268230;28;19920;-71
2023/06/19 01:49:33;;;;;;;;;;;22.70;50.60;;;;;;6267927;28;19913;-72
2023/06/19 01:52:33;;;;;;;;;;;22.60;50.50;;;;;;6268839;28;19909;-71
2023/06/19 01:55:34;;;;;;;;;;;22.60;50.40;;;;;;6268401;28;19909;-71
2023/06/19 01:58:34;;;;;;;;;;;22.70;50.50;;;;;;6268325;28;20489;-71
2023/06/19 02:01:35;;;;;;;;;;;22.70;50.60;;;;;;6268153;28;19956;-71
2023/06/19 02:04:36;;;;;;;;;;;22.60;50.50;;;;;;6268265;28;20368;-72
2023/06/19 02:07:36;;;;;;;;;;;22.60;50.40;;;;;;6268279;28;19989;-71
2023/06/19 02:10:37;;;;;;;;;;;22.60;50.50;;;;;;6268153;28;19999;-71
2023/06/19 02:13:38;;;;;;;;;;;22.70;50.50;;;;;;6268162;28;19915;-71
2023/06/19 02:16:40;;;;;;;;;;;22.60;50.40;;;;;;6267978;28;19909;-71
2023/06/19 02:19:40;;;;;;;;;;;22.60;50.40;;;;;;6268306;28;19916;-72
2023/06/19 02:22:41;;;;;;;;;;;22.60;50.30;;;;;;6268239;28;19912;-71
2023/06/19 02:25:41;;;;;;;;;;;22.60;50.20;;;;;;6266904;28;20386;-71
2023/06/19 02:28:42;;;;;;;;;;;22.60;50.30;;;;;;6267719;28;19944;-71
2023/06/19 02:31:42;;;;;;;;;;;22.70;50.40;;;;;;6268176;28;19915;-72
2023/06/19 02:34:44;;;;;;;;;;;22.60;50.30;;;;;;6267526;28;20240;-72
2023/06/19 02:37:46;;;;;;;;;;;22.60;50.20;;;;;;6267703;28;20375;-72
2023/06/19 02:40:46;;;;;;;;;;;22.70;50.30;;;;;;6267994;28;20277;-71
2023/06/19 02:43:47;;;;;;;;;;;22.60;50.20;;;;;;6267994;28;19943;-71
2023/06/19 02:46:47;;;;;;;;;;;22.60;50.20;;;;;;6267775;28;19924;-72
2023/06/19 02:49:48;;;;;;;;;;;22.60;50.20;;;;;;6267607;28;20269;-71
2023/06/19 02:52:48;;;;;;;;;;;22.70;50.30;;;;;;6267754;28;19916;-71
2023/06/19 02:55:49;;;;;;;;;;;22.70;50.20;;;;;;6268127;28;19909;-72
2023/06/19 02:58:49;;;;;;;;;;;22.70;50.20;;;;;;6267477;28;19919;-71
2023/06/19 03:01:51;;;;;;;;;;;22.70;50.20;;;;;;6271135;28;19920;-71
2023/06/19 03:04:52;;;;;;;;;;;22.70;50.20;;;;;;6271854;28;19929;-71
2023/06/19 03:07:52;;;;;;;;;;;22.70;50.20;;;;;;6271871;28;20394;-71
2023/06/19 03:10:53;;;;;;;;;;;22.70;50.20;;;;;;6272008;28;19912;-71
2023/06/19 03:13:54;;;;;;;;;;;22.70;50.10;;;;;;6272312;28;19955;-71
2023/06/19 03:16:54;;;;;;;;;;;22.70;50.20;;;;;;6271911;28;19932;-71
2023/06/19 03:19:55;;;;;;;;;;;22.70;50.20;;;;;;6270893;28;19917;-71
2023/06/19 03:22:55;;;;;;;;;;;22.70;50.20;;;;;;6271286;28;20091;-71
2023/06/19 03:25:57;;;;;;;;;;;22.70;50.00;;;;;;6271907;28;19909;-72
2023/06/19 03:28:58;;;;;;;;;;;22.70;50.00;;;;;;6271445;28;19913;-72
2023/06/19 03:31:58;;;;;;;;;;;22.70;50.00;;;;;;6271832;28;19956;-71
2023/06/19 03:34:59;;;;;;;;;;;22.70;50.00;;;;;;6271507;28;19909;-72
2023/06/19 03:38:00;;;;;;;;;;;22.70;50.00;;;;;;6271219;28;19955;-72
2023/06/19 03:41:00;;;;;;;;;;;22.70;50.00;;;;;;6271457;28;19924;-71
2023/06/19 03:44:01;;;;;;;;;;;22.70;49.90;;;;;;6271895;28;20019;-72
2023/06/19 03:47:01;;;;;;;;;;;22.70;49.90;;;;;;6271380;28;20202;-71
2023/06/19 03:50:02;;;;;;;;;;;22.80;50.00;;;;;;6271231;28;19940;-71
2023/06/19 03:53:03;;;;;;;;;;;22.70;49.80;;;;;;6271006;28;20256;-71
2023/06/19 03:56:03;;;;;;;;;;;22.80;49.90;;;;;;6270993;28;20059;-71
2023/06/19 04:02:42;;;;;;;;;;;22.80;49.90;;;;;;6271051;28;19964;-72
2023/06/19 04:05:43;;;;;;;;;;;22.70;49.70;;;;;;6271263;28;19935;-72
2023/06/19 04:08:43;;;;;;;;;;;22.70;49.80;;;;;;6270774;28;19913;-72
2023/06/19 04:11:44;;;;;;;;;;;22.70;49.90;;;;;;6270394;28;19909;-71
2023/06/19 04:14:44;;;;;;;;;;;22.80;50.00;;;;;;6271054;28;19954;-71
2023/06/19 04:17:45;;;;;;;;;;;22.60;51.00;;;;;;6271033;28;19916;-72
2023/06/19 04:20:45;;;;;;;;;;;22.50;51.80;;;;;;6270224;28;19917;-72
2023/06/19 04:23:46;;;;;;;;;;;22.40;51.90;;;;;;6270353;28;19916;-72
2023/06/19 04:26:46;;;;;;;;;;;22.30;52.30;;;;;;6270594;28;20007;-72
2023/06/19 04:29:47;;;;;;;;;;;22.30;52.30;;;;;;6269733;28;19909;-72
2023/06/19 04:32:47;;;;;;;;;;;22.20;52.50;;;;;;6268477;28;19916;-72
2023/06/19 04:35:48;;;;;;;;;;;22.20;52.80;;;;;;6270078;28;19959;-71
2023/06/19 04:38:51;;;;;;;;;;;22.20;53.00;;;;;;6270273;28;19957;-71
2023/06/19 04:41:51;;;;;;;;;;;22.20;53.30;;;;;;6268593;28;20008;-71
2023/06/19 04:44:52;;;;;;;;;;;22.20;53.20;;;;;;6269942;28;19916;-72
2023/06/19 04:47:52;;;;;;;;;;;22.10;53.60;;;;;;6269863;28;19913;-71
2023/06/19 04:50:54;;;;;;;;;;;22.20;54.10;;;;;;6269772;28;19912;-72
2023/06/19 04:53:55;;;;;;;;;;;22.10;54.20;;;;;;6269943;28;19916;-72
2023/06/19 04:56:55;;;;;;;;;;;22.10;54.50;;;;;;6258230;28;19917;-72
2023/06/19 04:59:56;;;;;;;;;;;22.10;54.30;;;;;;6260726;28;19917;-72
2023/06/19 05:03:00;;;;;;;;;;;22.10;54.60;;;;;;6267303;28;19943;-71
2023/06/19 05:06:00;;;;;;;;;;;22.10;54.60;;;;;;6268616;28;19913;-71
2023/06/19 05:09:01;;;;;;;;;;;22.10;54.70;;;;;;6268277;28;19920;-72
2023/06/19 05:12:01;;;;;;;;;;;22.10;54.60;;;;;;6268530;28;19909;-72
2023/06/19 05:15:02;;;;;;;;;;;22.10;54.70;;;;;;6267446;28;20007;-71
2023/06/19 05:18:02;;;;;;;;;;;22.10;54.60;;;;;;6267000;28;19909;-71
2023/06/19 05:21:03;;;;;;;;;;;22.10;54.50;;;;;;6269805;28;19921;-71
2023/06/19 05:24:04;;;;;;;;;;;22.00;54.60;;;;;;6255601;28;19924;-71
2023/06/19 05:27:04;;;;;;;;;;;22.00;54.90;;;;;;6270005;28;20371;-71
2023/06/19 05:30:05;;;;;;;;;;;22.00;54.50;;;;;;6269335;28;19917;-71
2023/06/19 05:33:06;;;;;;;;;;;22.00;54.60;;;;;;6269334;28;19909;-72
2023/06/19 05:36:06;;;;;;;;;;;22.00;54.60;;;;;;6269511;28;19917;-71
2023/06/19 05:39:07;;;;;;;;;;;22.00;54.80;;;;;;6269243;28;19916;-71
2023/06/19 05:42:07;;;;;;;;;;;22.00;54.80;;;;;;6270945;28;19908;-71
2023/06/19 05:45:08;;;;;;;;;;;22.00;54.80;;;;;;6269305;28;19961;-71
2023/06/19 05:48:08;;;;;;;;;;;22.00;54.80;;;;;;6269039;28;19909;-71
2023/06/19 05:51:09;;;;;;;;;;;22.00;55.00;;;;;;6254599;28;19920;-71
2023/06/19 05:54:09;;;;;;;;;;;22.00;55.00;;;;;;6268240;28;20390;-72
2023/06/19 05:57:11;;;;;;;;;;;22.00;55.10;;;;;;6269299;28;19944;-71
2023/06/19 06:00:14;;;;;;;;;;;22.00;55.80;;;;;;6262624;28;19988;-72
2023/06/19 06:03:14;;;;;;;;;;;22.00;55.20;;;;;;6269805;28;19956;-72
2023/06/19 06:06:15;;;;;;;;;;;22.00;55.10;;;;;;6269155;28;20262;-71
2023/06/19 06:09:16;;;;;;;;;;;22.00;55.20;;;;;;6265876;28;19909;-71
2023/06/19 06:12:16;;;;;;;;;;;22.00;55.60;;;;;;6270412;28;19909;-71
2023/06/19 06:15:17;;;;;;;;;;;21.90;55.50;;;;;;6269586;28;20007;-71
2023/06/19 06:18:17;;;;;;;;;;;22.00;56.30;;;;;;6270798;28;20059;-71
2023/06/19 06:21:18;;;;;;;;;;;22.00;55.60;;;;;;6270480;28;19970;-71
2023/06/19 06:24:18;;;;;;;;;;;21.90;55.60;;;;;;6270054;28;20355;-71
2023/06/19 06:27:19;;;;;;;;;;;21.90;55.60;;;;;;6270733;28;19909;-71
2023/06/19 06:30:19;;;;;;;;;;;21.90;55.60;;;;;;6270312;28;19909;-71
2023/06/19 06:33:20;;;;;;;;;;;21.90;55.70;;;;;;6249552;28;20563;-71
2023/06/19 06:36:20;;;;;;;;;;;21.90;56.10;;;;;;6275151;28;20279;-71
2023/06/19 06:39:20;;;;;;;;;;;21.90;55.80;;;;;;6268854;28;20019;-71
2023/06/19 06:42:21;;;;;;;;;;;21.90;55.80;;;;;;6274672;28;19917;-71
2023/06/19 06:45:22;;;;;;;;;;;21.90;55.90;;;;;;6275663;28;20290;-72
2023/06/19 06:48:22;;;;;;;;;;;21.90;56.00;;;;;;6275012;28;19908;-72
2023/06/19 06:51:23;;;;;;;;;;;21.90;56.00;;;;;;6271374;28;19913;-71
2023/06/19 06:54:23;;;;;;;;;;;21.90;56.10;;;;;;6273454;28;19908;-71
2023/06/19 06:57:35;;;;;;;;;;;21.90;56.10;;;;;;6275170;28;19909;-72
2023/06/19 07:00:35;;;;;;;;;;;21.90;56.10;;;;;;6275216;28;20336;-71
2023/06/19 07:03:36;;;;;;;;;;;21.90;56.20;;;;;;6274531;28;19924;-71
2023/06/19 07:06:36;;;;;;;;;;;21.90;56.30;;;;;;6274526;28;20264;-71
2023/06/19 07:09:37;;;;;;;;;;;21.90;56.20;;;;;;6274257;28;19909;-71
2023/06/19 07:12:48;;;;;;;;;;;21.90;56.40;;;;;;6274956;28;19994;-71
2023/06/19 07:15:50;;;;;;;;;;;21.90;56.40;;;;;;6274133;28;20247;-71
2023/06/19 07:18:51;;;;;;;;;;;21.90;56.40;;;;;;6274445;28;20295;-72
2023/06/19 07:21:51;;;;;;;;;;;21.90;56.50;;;;;;6274446;28;19919;-71
2023/06/19 07:24:52;;;;;;;;;;;21.90;56.50;;;;;;6260725;28;20352;-71
2023/06/19 07:27:52;;;;;;;;;;;21.90;56.50;;;;;;6272440;28;20321;-71
2023/06/19 07:30:53;;;;;;;;;;;21.90;56.50;;;;;;6273783;28;19913;-71
2023/06/19 07:33:53;;;;;;;;;;;21.90;56.60;;;;;;6265423;28;19909;-72
2023/06/19 07:36:54;;;;;;;;;;;21.90;56.60;;;;;;6265458;28;19909;-71
2023/06/19 07:39:55;;;;;;;;;;;21.90;56.60;;;;;;6273929;28;20397;-71
2023/06/19 07:42:56;;;;;;;;;;;21.90;56.60;;;;;;6273606;28;20654;-71
2023/06/19 07:45:56;;;;;;;;;;;21.90;56.60;;;;;;6271121;28;19954;-71
2023/06/19 07:48:57;;;;;;;;;;;21.90;56.70;;;;;;6273693;28;19994;-71
2023/06/19 07:51:57;;;;;;;;;;;21.90;56.70;;;;;;6262408;28;19924;-71
2023/06/19 07:54:58;;;;;;;;;;;21.90;56.70;;;;;;6263675;28;20543;-71
2023/06/19 07:57:58;;;;;;;;;;;21.90;56.70;;;;;;6265256;28;19963;-71
2023/06/19 08:00:59;;;;;;;;;;;21.90;57.00;;;;;;6248017;28;19963;-71
2023/06/19 08:03:59;;;;;;;;;;;21.90;56.50;;;;;;6256927;28;20382;-71
2023/06/19 08:07:00;;;;;;;;;;;21.90;56.60;;;;;;6273032;28;20275;-71
2023/06/19 08:10:01;;;;;;;;;;;21.90;56.50;;;;;;6272762;28;20047;-72
2023/06/19 08:13:01;;;;;;;;;;;21.90;56.40;;;;;;6272839;28;20042;-71
2023/06/19 08:16:02;;;;;;;;;;;21.90;56.30;;;;;;6272761;28;19958;-71
2023/06/19 08:19:02;;;;;;;;;;;22.00;56.30;;;;;;6273316;28;19919;-71
2023/06/19 08:22:03;;;;;;;;;;;22.00;56.30;;;;;;6273107;28;19908;-72
2023/06/19 08:25:03;;;;;;;;;;;22.00;56.40;;;;;;6272963;28;19913;-72
2023/06/19 08:28:05;;;;;;;;;;;22.00;56.40;;;;;;6272799;28;19908;-71
2023/06/19 08:31:05;;;;;;;;;;;22.00;56.40;;;;;;6257244;28;20383;-71
2023/06/19 08:34:09;;;;;;;;;;;22.00;56.50;;;;;;6272267;28;19909;-71
2023/06/19 08:37:09;;;;;;;;;;;22.00;56.70;;;;;;6272498;28;20359;-72
2023/06/19 08:40:11;;;;;;;;;;;22.00;56.70;;;;;;6272726;28;19920;-71
2023/06/19 08:43:12;;;;;;;;;;;21.90;56.60;;;;;;6272110;28;19960;-72
2023/06/19 08:46:20;;;;;;;;;;;21.90;56.60;;;;;;6272295;28;19913;-71
2023/06/19 08:49:20;;;;;;;;;;;21.90;56.70;;;;;;6272569;28;19916;-71
2023/06/19 08:52:21;;;;;;;;;;;21.90;56.70;;;;;;6266215;28;19913;-71
2023/06/19 08:55:21;;;;;;;;;;;21.90;56.80;;;;;;6272344;28;20611;-71
2023/06/19 08:58:23;;;;;;;;;;;21.90;56.80;;;;;;6270653;28;20016;-71
2023/06/19 09:01:26;;;;;;;;;;;21.90;56.90;;;;;;6271895;28;19923;-71
2023/06/19 09:04:27;;;;;;;;;;;21.90;56.90;;;;;;6272323;28;20002;-72
2023/06/19 09:07:28;;;;;;;;;;;21.90;56.90;;;;;;6266599;28;19912;-71
2023/06/19 09:10:28;;;;;;;;;;;21.90;57.00;;;;;;6272097;28;19909;-72
2023/06/19 09:13:29;;;;;;;;;;;21.90;57.00;;;;;;6271967;28;19916;-71
2023/06/19 09:16:37;;;;;;;;;;;21.90;57.00;;;;;;6248155;28;19913;-71
2023/06/19 09:19:39;;;;;;;;;;;21.90;57.00;;;;;;6257345;28;19917;-71
2023/06/19 09:22:40;;;;;;;;;;;21.80;57.00;;;;;;6270600;28;19916;-71
2023/06/19 09:25:48;;;;;;;;;;;21.90;57.10;;;;;;6267827;28;19909;-71
2023/06/19 09:28:50;;;;;;;;;;;21.90;57.10;;;;;;6261715;28;20371;-71
2023/06/19 09:31:50;;;;;;;;;;;21.80;57.10;;;;;;6271643;28;19908;-71
2023/06/19 09:34:52;;;;;;;;;;;21.90;57.20;;;;;;6261988;28;19920;-72
2023/06/19 09:37:53;;;;;;;;;;;21.80;57.10;;;;;;6271326;28;20382;-71
2023/06/19 09:40:55;;;;;;;;;;;21.80;57.10;;;;;;6270813;28;20015;-71
2023/06/19 09:43:59;;;;;;;;;;;21.80;57.20;;;;;;6271013;28;20517;-71
2023/06/19 09:47:04;;;;;;;;;;;21.80;57.20;;;;;;6246752;28;19909;-72
2023/06/19 09:50:06;;;;;;;;;;;21.80;57.20;;;;;;6269097;28;19993;-71
2023/06/19 09:53:06;;;;;;;;;;;21.80;57.20;;;;;;6270387;28;19909;-72
2023/06/19 09:56:08;;;;;;;;;;;21.80;57.20;;;;;;6271218;28;20287;-71
2023/06/19 09:59:09;;;;;;;;;;;21.80;57.30;;;;;;6270579;28;19920;-71
2023/06/19 10:02:10;;;;;;;;;;;21.80;57.30;;;;;;6269239;28;19909;-71
2023/06/19 10:05:14;;;;;;;;;;;21.80;57.30;;;;;;6270347;28;19920;-71
2023/06/19 10:08:25;;;;;;;;;;;21.80;57.30;;;;;;6270971;28;19959;-71
2023/06/19 10:11:27;;;;;;;;;;;21.80;57.30;;;;;;6268699;28;19916;-71
2023/06/19 10:14:27;;;;;;;;;;;21.90;58.30;;;;;;6256799;28;19912;-71
2023/06/19 10:17:29;;;;;;;;;;;21.90;55.70;;;;;;6270310;28;19920;-71
2023/06/19 10:20:31;;;;;;;;;;;21.90;54.90;;;;;;6270904;28;19920;-72
2023/06/19 10:23:35;;;;;;;;;;;22.10;54.60;;;;;;6287616;28;19924;-71
2023/06/19 10:26:37;;;;;;;;;;;22.30;54.10;;;;;;6266707;28;20371;-71
2023/06/19 10:29:39;;;;;;;;;;;22.30;53.70;;;;;;6257629;28;19908;-73
2023/06/19 10:32:39;;;;;;;;;;;22.40;53.60;;;;;;6269012;28;19909;-71
2023/06/19 10:35:40;;;;;;;;;;;22.40;53.40;;;;;;6269642;28;20395;-71
2023/06/19 10:38:41;;;;;;;;;;;22.40;53.10;;;;;;6269043;28;19916;-71
2023/06/19 10:41:41;;;;;;;;;;;22.50;53.00;;;;;;6269450;28;20355;-71
2023/06/19 10:44:42;;;;;;;;;;;22.50;52.80;;;;;;6269204;28;19916;-71
2023/06/19 10:47:43;;;;;;;;;;;22.50;52.60;;;;;;6270035;28;20359;-72
2023/06/19 10:50:43;;;;;;;;;;;22.60;52.60;;;;;;6268177;28;19993;-72
2023/06/19 10:53:44;;;;;;;;;;;22.60;52.40;;;;;;6269434;28;19909;-72
2023/06/19 10:56:48;;;;;;;;;;;22.60;52.30;;;;;;6269559;28;19916;-71
2023/06/19 10:59:50;;;;;;;;;;;22.60;52.30;;;;;;6269253;28;19912;-71
2023/06/19 11:02:51;;;;;;;;;;;22.60;52.10;;;;;;6268431;28;20006;-72
2023/06/19 11:05:51;;;;;;;;;;;22.60;52.10;;;;;;6269009;28;19917;-72
2023/06/19 11:08:56;;;;;;;;;;;22.60;52.00;;;;;;6269568;28;19986;-72
2023/06/19 11:11:56;;;;;;;;;;;22.60;51.80;;;;;;6269078;28;19915;-72
2023/06/19 11:14:57;;;;;;;;;;;22.70;51.80;;;;;;6267946;28;19944;-72
2023/06/19 11:17:58;;;;;;;;;;;22.70;51.80;;;;;;6270026;28;19975;-71
2023/06/19 11:21:00;;;;;;;;;;;22.70;51.90;;;;;;6269657;28;20007;-71
2023/06/19 11:24:01;;;;;;;;;;;22.80;51.40;;;;;;6273317;28;19909;-72
2023/06/19 11:27:01;;;;;;;;;;;22.80;51.60;;;;;;6273650;28;19916;-71
2023/06/19 11:30:06;;;;;;;;;;;22.80;51.60;;;;;;6273383;28;19909;-71
2023/06/19 11:33:21;;;;;;;;;;;22.80;51.60;;;;;;6273469;28;20350;-71
2023/06/19 11:36:22;;;;;;;;;;;22.80;51.50;;;;;;6273246;28;19916;-72
2023/06/19 11:39:23;;;;;;;;;;;22.80;51.30;;;;;;6273478;28;20661;-72
2023/06/19 11:42:25;;;;;;;;;;;22.70;51.30;;;;;;6273085;28;19974;-72
2023/06/19 11:45:26;;;;;;;;;;;22.80;51.40;;;;;;6273211;28;19913;-72
2023/06/19 11:48:26;;;;;;;;;;;22.70;51.40;;;;;;6273000;28;19916;-73
2023/06/19 11:51:27;;;;;;;;;;;22.70;51.30;;;;;;6256288;28;19921;-72
2023/06/19 11:54:27;;;;;;;;;;;22.70;51.20;;;;;;6268378;28;19908;-72
2023/06/19 11:57:28;;;;;;;;;;;22.70;51.20;;;;;;6272722;28;19955;-73
2023/06/19 12:00:28;;;;;;;;;;;22.70;51.10;;;;;;6272456;28;20398;-72
2023/06/19 12:03:29;;;;;;;;;;;22.70;51.50;;;;;;6271340;28;20316;-72
2023/06/19 12:06:30;;;;;;;;;;;22.80;51.10;;;;;;6274531;28;19919;-72
2023/06/19 12:09:31;;;;;;;;;;;22.80;51.10;;;;;;6273118;28;19909;-73
2023/06/19 12:12:32;;;;;;;;;;;22.80;50.90;;;;;;6271850;28;19913;-72
2023/06/19 12:15:32;;;;;;;;;;;22.80;51.10;;;;;;6272463;28;19974;-74
2023/06/19 12:18:33;;;;;;;;;;;22.80;50.90;;;;;;6272514;28;19956;-73
2023/06/19 12:21:33;;;;;;;;;;;22.80;50.90;;;;;;6273950;28;19917;-74
2023/06/19 12:24:34;;;;;;;;;;;22.80;50.90;;;;;;6272561;28;19909;-73
2023/06/19 12:27:34;;;;;;;;;;;22.80;50.80;;;;;;6272149;28;20310;-73
2023/06/19 12:30:36;;;;;;;;;;;22.80;50.80;;;;;;6272279;28;20555;-72
2023/06/19 12:33:38;;;;;;;;;;;22.80;50.80;;;;;;6272016;28;19908;-73
2023/06/19 12:36:39;;;;;;;;;;;22.80;50.70;;;;;;6271893;28;19991;-73
2023/06/19 12:39:40;;;;;;;;;;;22.80;50.70;;;;;;6272057;28;19920;-73
2023/06/19 12:42:40;;;;;;;;;;;22.80;50.70;;;;;;6271275;28;20003;-73
2023/06/19 12:45:41;;;;;;;;;;;22.80;50.60;;;;;;6270556;28;19994;-73
2023/06/19 12:48:41;;;;;;;;;;;22.80;50.60;;;;;;6269963;28;20380;-73
2023/06/19 12:51:42;;;;;;;;;;;22.80;50.60;;;;;;6268845;28;19921;-72
2023/06/19 12:54:42;;;;;;;;;;;22.80;50.50;;;;;;6269835;28;20426;-73
2023/06/19 12:57:44;;;;;;;;;;;22.80;50.50;;;;;;6267660;28;19917;-73
2023/06/19 13:00:45;;;;;;;;;;;22.80;50.40;;;;;;6258539;28;20324;-73
2023/06/19 13:03:45;;;;;;;;;;;22.80;50.40;;;;;;6269543;28;19921;-73
2023/06/19 13:06:46;;;;;;;;;;;22.80;50.40;;;;;;6253526;28;19936;-73
2023/06/19 13:09:46;;;;;;;;;;;22.80;50.40;;;;;;6271290;28;19909;-73
2023/06/19 13:12:47;;;;;;;;;;;22.80;50.30;;;;;;6270759;28;20333;-73
2023/06/19 13:15:47;;;;;;;;;;;22.90;50.30;;;;;;6270987;28;19999;-72
2023/06/19 13:18:48;;;;;;;;;;;22.90;50.30;;;;;;6270564;28;20398;-73
2023/06/19 13:21:48;;;;;;;;;;;22.80;50.10;;;;;;6270954;28;19920;-72
2023/06/19 13:24:48;;;;;;;;;;;22.80;50.20;;;;;;6295106;28;20374;-72
2023/06/19 13:27:49;;;;;;;;;;;22.90;51.70;;;;;;6286736;28;19955;-73
2023/06/19 13:30:50;;;;;;;;;;;23.00;50.10;;;;;;6271024;28;20307;-72
2023/06/19 13:33:50;;;;;;;;;;;22.90;50.20;;;;;;6270399;28;19913;-74
2023/06/19 13:36:50;;;;;;;;;;;22.90;50.10;;;;;;6271072;28;19909;-73
2023/06/19 13:39:51;;;;;;;;;;;22.90;50.20;;;;;;6270309;28;19916;-73
2023/06/19 13:42:52;;;;;;;;;;;22.90;50.10;;;;;;6270008;28;19916;-73
2023/06/19 13:45:52;;;;;;;;;;;22.90;50.00;;;;;;6270033;28;19909;-73
2023/06/19 13:48:53;;;;;;;;;;;22.90;50.10;;;;;;6270396;28;19912;-72
2023/06/19 13:51:53;;;;;;;;;;;22.90;50.00;;;;;;6259761;28;19913;-73
2023/06/19 13:54:54;;;;;;;;;;;22.90;50.00;;;;;;6268177;28;19908;-73
2023/06/19 13:57:54;;;;;;;;;;;22.90;50.00;;;;;;6265637;28;20394;-72
2023/06/19 14:00:55;;;;;;;;;;;22.90;49.90;;;;;;6270089;28;19913;-72
2023/06/19 14:03:57;;;;;;;;;;;22.90;49.90;;;;;;6268345;28;19921;-73
2023/06/19 14:06:58;;;;;;;;;;;22.90;49.90;;;;;;6270456;28;19943;-73
2023/06/19 14:09:59;;;;;;;;;;;22.90;49.80;;;;;;6269883;28;19916;-72
2023/06/19 14:12:59;;;;;;;;;;;22.90;49.80;;;;;;6269173;28;20425;-73
2023/06/19 14:16:01;;;;;;;;;;;22.90;49.70;;;;;;6270064;28;19916;-73
2023/06/19 14:19:02;;;;;;;;;;;22.90;49.70;;;;;;6269939;28;20398;-73
2023/06/19 14:22:02;;;;;;;;;;;22.90;49.60;;;;;;6269739;28;19909;-73
2023/06/19 14:25:03;;;;;;;;;;;22.90;49.70;;;;;;6270056;28;19932;-72
2023/06/19 14:28:04;;;;;;;;;;;22.90;49.70;;;;;;6269662;28;20000;-73
2023/06/19 14:31:05;;;;;;;;;;;22.90;49.70;;;;;;6270112;28;19908;-73
2023/06/19 14:34:05;;;;;;;;;;;22.90;49.70;;;;;;6269218;28;20399;-72
2023/06/19 14:37:06;;;;;;;;;;;22.90;49.70;;;;;;6270063;28;19909;-72
2023/06/19 14:40:07;;;;;;;;;;;22.90;49.60;;;;;;6269530;28;19924;-73
2023/06/19 14:43:09;;;;;;;;;;;22.90;49.60;;;;;;6269427;28;19909;-72
2023/06/19 14:46:09;;;;;;;;;;;22.90;49.60;;;;;;6269486;28;20511;-72
2023/06/19 14:49:12;;;;;;;;;;;22.90;49.60;;;;;;6269514;28;19915;-72
2023/06/19 14:52:15;;;;;;;;;;;23.10;49.50;;;;;;6256186;28;20059;-73
2023/06/19 14:55:15;;;;;;;;;;;23.20;49.20;;;;;;6266727;28;19999;-73
2023/06/19 14:58:16;;;;;;;;;;;23.20;49.30;;;;;;6274195;28;19966;-73
2023/06/19 15:01:16;;;;;;;;;;;23.20;49.40;;;;;;6274082;28;19963;-72
2023/06/19 15:04:17;;;;;;;;;;;23.20;50.00;;;;;;6272819;28;19929;-73
2023/06/19 15:07:17;;;;;;;;;;;23.20;49.40;;;;;;6273410;28;19920;-75
2023/06/19 15:10:18;;;;;;;;;;;23.30;50.00;;;;;;6274150;28;19908;-72
2023/06/19 15:13:18;;;;;;;;;;;23.20;49.70;;;;;;6273619;28;19909;-73
2023/06/19 15:16:21;;;;;;;;;;;23.20;49.80;;;;;;6265518;28;19916;-73
2023/06/19 15:19:23;;;;;;;;;;;23.20;49.70;;;;;;6273485;28;19975;-73
2023/06/19 15:22:24;;;;;;;;;;;23.10;49.60;;;;;;6273433;28;19909;-74
2023/06/19 15:25:24;;;;;;;;;;;23.10;49.50;;;;;;6255490;28;19924;-72
2023/06/19 15:28:25;;;;;;;;;;;23.10;49.60;;;;;;6270579;28;19909;-73
2023/06/19 15:31:25;;;;;;;;;;;23.10;49.50;;;;;;6273364;28;20410;-72
2023/06/19 15:34:26;;;;;;;;;;;23.10;49.50;;;;;;6273481;28;19908;-73
2023/06/19 15:37:27;;;;;;;;;;;23.10;49.50;;;;;;6273534;28;20364;-73
2023/06/19 15:40:27;;;;;;;;;;;23.10;49.40;;;;;;6257560;28;19920;-73
2023/06/19 15:43:28;;;;;;;;;;;23.20;49.50;;;;;;6267340;28;20105;-74
2023/06/19 15:46:29;;;;;;;;;;;23.20;49.20;;;;;;6273318;28;19909;-73
2023/06/19 15:49:29;;;;;;;;;;;23.30;49.20;;;;;;6273388;28;19909;-72
2023/06/19 15:52:30;;;;;;;;;;;23.40;49.30;;;;;;6257662;28;19913;-74
2023/06/19 15:55:30;;;;;;;;;;;23.30;48.90;;;;;;6256959;28;20344;-74
2023/06/19 15:58:31;;;;;;;;;;;23.40;49.20;;;;;;6254127;28;20415;-73
2023/06/19 16:01:31;;;;;;;;;;;23.40;49.00;;;;;;6263867;28;19920;-73
2023/06/19 16:04:32;;;;;;;;;;;23.50;49.20;;;;;;6268738;28;19932;-73
2023/06/19 16:07:32;;;;;;;;;;;23.40;49.50;;;;;;6270889;28;19963;-74
2023/06/19 16:10:33;;;;;;;;;;;23.50;49.70;;;;;;6271364;28;19964;-74
2023/06/19 16:13:33;;;;;;;;;;;23.50;49.50;;;;;;6270954;28;19908;-75
2023/06/19 16:16:34;;;;;;;;;;;23.50;49.10;;;;;;6271199;28;19915;-74
2023/06/19 16:19:35;;;;;;;;;;;23.50;49.50;;;;;;6271089;28;19913;-74
2023/06/19 16:22:35;;;;;;;;;;;23.40;49.50;;;;;;6270930;28;20326;-75
2023/06/19 16:25:36;;;;;;;;;;;23.30;49.50;;;;;;6270556;28;19917;-74
2023/06/19 16:28:36;;;;;;;;;;;23.30;49.40;;;;;;6271249;28;20023;-74
2023/06/19 16:31:37;;;;;;;;;;;23.30;49.40;;;;;;6270421;28;19919;-74
2023/06/19 16:34:38;;;;;;;;;;;23.30;49.40;;;;;;6270878;28;19934;-74
2023/06/19 16:37:38;;;;;;;;;;;23.30;49.50;;;;;;6270200;28;19912;-74
2023/06/19 16:40:38;;;;;;;;;;;23.30;49.40;;;;;;6270288;28;19913;-75
2023/06/19 16:43:39;;;;;;;;;;;23.20;49.30;;;;;;6270782;28;20375;-74
2023/06/19 16:46:39;;;;;;;;;;;23.20;49.30;;;;;;6270547;28;19936;-74
2023/06/19 16:49:40;;;;;;;;;;;23.20;49.30;;;;;;6269574;28;19913;-74
2023/06/19 16:52:41;;;;;;;;;;;23.20;49.20;;;;;;6266959;28;20395;-74
2023/06/19 16:55:41;;;;;;;;;;;23.30;49.60;;;;;;6269978;28;20403;-75
2023/06/19 16:58:41;;;;;;;;;;;23.40;49.30;;;;;;6269775;28;19913;-74
2023/06/19 17:01:43;;;;;;;;;;;23.50;49.10;;;;;;6268560;28;19978;-73
2023/06/19 17:04:43;;;;;;;;;;;23.50;48.80;;;;;;6264867;28;19921;-74
2023/06/19 17:07:45;;;;;;;;;;;23.50;49.80;;;;;;6266614;28;19909;-73
2023/06/19 17:10:45;;;;;;;;;;;23.40;49.50;;;;;;6270125;28;19956;-73
2023/06/19 17:13:46;;;;;;;;;;;23.40;49.60;;;;;;6269236;28;19912;-73
2023/06/19 17:16:47;;;;;;;;;;;23.40;49.40;;;;;;6269628;28;20030;-73
2023/06/19 17:19:47;;;;;;;;;;;23.30;49.30;;;;;;6268872;28;19931;-73
2023/06/19 17:22:48;;;;;;;;;;;23.30;49.40;;;;;;6269123;28;19917;-73
2023/06/19 17:25:49;;;;;;;;;;;23.30;49.40;;;;;;6269147;28;20015;-73
2023/06/19 17:28:49;;;;;;;;;;;23.30;49.20;;;;;;6269672;28;19921;-74
2023/06/19 17:31:50;;;;;;;;;;;23.30;49.30;;;;;;6268766;28;19963;-73
2023/06/19 17:34:50;;;;;;;;;;;23.30;49.20;;;;;;6268837;28;19912;-73